Shishmaref Airport Shishmaref US
ICAO: PASH
IATA:
Category: Medium
Scheduled Services:

Elevation: 12 ft
TransAlt. 18000 ft.

Airport Communications:
AWOS 3:121.1
ANCHORAGE CNTR:119.2
CTAF:123
NOME RDO:122.4
TWEB:36.5

PASH Zoom In..

If you have problems with the map follow the link
https://www.worldairports.se/pages/airport.php?
ICAO=PASH

Runways:

(A) RW 05 length 4997 ft width 73 ft
---- / hdg 49

(B) RW 23 length 4997 ft width 73 ft
---- / hdg 229

Location; PASH
Day. 16 / Time. 20.56 Zulu
* Altimeter: 29.93
* Temperature: -12° c. -10.4°f.
* Wind from: 100° Speed 28 kn.
Dewpoint: -15° c.
Visibility: 10 Statute Miles.
Clouds: Clear (automated report).

PASH 162056Z AUTO 10028KT 10SM CLR M12/M15 A2993 RMK AO2 PK WND 10030/2056 SLP136 T11171150 58030 FZRANO


Wind From 100°
Speed 28 kn.

 
 
jpsmedia worldairports.se 2020   terms of use